sensor_id;sensor_type;location;lat;lon;timestamp;pressure;altitude;pressure_sealevel;temperature
67966;BMP280;54749;47.850;9.002;2022-11-20T00:00:16;95599.16;;;1.72
67966;BMP280;54749;47.850;9.002;2022-11-20T00:03:03;95592.63;;;1.70
67966;BMP280;54749;47.850;9.002;2022-11-20T00:05:32;95599.22;;;1.71
67966;BMP280;54749;47.850;9.002;2022-11-20T00:07:59;95595.09;;;1.70
67966;BMP280;54749;47.850;9.002;2022-11-20T00:10:26;95597.59;;;1.70
67966;BMP280;54749;47.850;9.002;2022-11-20T00:12:52;95601.53;;;1.74
67966;BMP280;54749;47.850;9.002;2022-11-20T00:15:19;95599.81;;;1.75
67966;BMP280;54749;47.850;9.002;2022-11-20T00:17:46;95609.91;;;1.73
67966;BMP280;54749;47.850;9.002;2022-11-20T00:20:13;95595.03;;;1.71
67966;BMP280;54749;47.850;9.002;2022-11-20T00:22:40;95595.84;;;1.72
67966;BMP280;54749;47.850;9.002;2022-11-20T00:25:07;95595.91;;;1.70
67966;BMP280;54749;47.850;9.002;2022-11-20T00:27:34;95599.38;;;1.68
67966;BMP280;54749;47.850;9.002;2022-11-20T00:30:01;95606.84;;;1.68
67966;BMP280;54749;47.850;9.002;2022-11-20T00:32:27;95604.34;;;1.68
67966;BMP280;54749;47.850;9.002;2022-11-20T00:34:54;95605.06;;;1.70
67966;BMP280;54749;47.850;9.002;2022-11-20T00:37:21;95604.03;;;1.74
67966;BMP280;54749;47.850;9.002;2022-11-20T00:39:48;95610.72;;;1.73
67966;BMP280;54749;47.850;9.002;2022-11-20T00:42:15;95604.94;;;1.73
67966;BMP280;54749;47.850;9.002;2022-11-20T00:44:42;95604.03;;;1.74
67966;BMP280;54749;47.850;9.002;2022-11-20T00:47:09;95613.00;;;1.77
67966;BMP280;54749;47.850;9.002;2022-11-20T00:49:36;95614.97;;;1.88
67966;BMP280;54749;47.850;9.002;2022-11-20T00:52:03;95626.16;;;1.96
67966;BMP280;54749;47.850;9.002;2022-11-20T00:54:29;95622.38;;;2.06
67966;BMP280;54749;47.850;9.002;2022-11-20T00:56:56;95627.66;;;2.16
67966;BMP280;54749;47.850;9.002;2022-11-20T00:59:23;95627.25;;;2.24
67966;BMP280;54749;47.850;9.002;2022-11-20T01:01:50;95624.91;;;2.37
67966;BMP280;54749;47.850;9.002;2022-11-20T01:04:17;95619.31;;;2.49
67966;BMP280;54749;47.850;9.002;2022-11-20T01:06:43;95606.13;;;2.62
67966;BMP280;54749;47.850;9.002;2022-11-20T01:09:12;95604.22;;;2.82
67966;BMP280;54749;47.850;9.002;2022-11-20T01:11:42;95598.69;;;2.92
67966;BMP280;54749;47.850;9.002;2022-11-20T01:14:11;95605.06;;;2.97
67966;BMP280;54749;47.850;9.002;2022-11-20T01:16:49;95612.31;;;3.02
67966;BMP280;54749;47.850;9.002;2022-11-20T01:19:19;95605.97;;;3.12
67966;BMP280;54749;47.850;9.002;2022-11-20T01:21:50;95611.19;;;3.22
67966;BMP280;54749;47.850;9.002;2022-11-20T01:24:19;95618.44;;;3.27
67966;BMP280;54749;47.850;9.002;2022-11-20T01:26:48;95624.06;;;3.30
67966;BMP280;54749;47.850;9.002;2022-11-20T01:29:21;95617.88;;;3.37
67966;BMP280;54749;47.850;9.002;2022-11-20T01:31:49;95603.28;;;3.45
67966;BMP280;54749;47.850;9.002;2022-11-20T01:34:18;95604.78;;;3.47
67966;BMP280;54749;47.850;9.002;2022-11-20T01:36:46;95618.91;;;3.48
67966;BMP280;54749;47.850;9.002;2022-11-20T01:39:16;95624.53;;;3.51
67966;BMP280;54749;47.850;9.002;2022-11-20T01:41:45;95621.16;;;3.52
67966;BMP280;54749;47.850;9.002;2022-11-20T01:44:48;95616.78;;;3.56
67966;BMP280;54749;47.850;9.002;2022-11-20T01:47:35;95615.66;;;3.61
67966;BMP280;54749;47.850;9.002;2022-11-20T01:50:17;95616.28;;;3.65
67966;BMP280;54749;47.850;9.002;2022-11-20T01:52:48;95612.72;;;3.68
67966;BMP280;54749;47.850;9.002;2022-11-20T01:55:23;95611.03;;;3.69
67966;BMP280;54749;47.850;9.002;2022-11-20T01:57:51;95615.88;;;3.72
67966;BMP280;54749;47.850;9.002;2022-11-20T02:00:19;95621.28;;;3.80
67966;BMP280;54749;47.850;9.002;2022-11-20T02:03:03;95624.16;;;3.87
67966;BMP280;54749;47.850;9.002;2022-11-20T02:05:39;95621.22;;;3.95
67966;BMP280;54749;47.850;9.002;2022-11-20T02:08:07;95629.91;;;4.03
67966;BMP280;54749;47.850;9.002;2022-11-20T02:10:34;95627.94;;;4.08
67966;BMP280;54749;47.850;9.002;2022-11-20T02:13:02;95631.88;;;4.12
67966;BMP280;54749;47.850;9.002;2022-11-20T02:15:48;95616.47;;;4.19
67966;BMP280;54749;47.850;9.002;2022-11-20T02:18:17;95632.03;;;4.24
67966;BMP280;54749;47.850;9.002;2022-11-20T02:20:47;95629.34;;;4.27
67966;BMP280;54749;47.850;9.002;2022-11-20T02:23:28;95615.78;;;4.31
67966;BMP280;54749;47.850;9.002;2022-11-20T02:25:58;95621.59;;;4.31
67966;BMP280;54749;47.850;9.002;2022-11-20T02:28:27;95607.72;;;4.26
67966;BMP280;54749;47.850;9.002;2022-11-20T02:30:54;95616.56;;;4.18
67966;BMP280;54749;47.850;9.002;2022-11-20T02:33:20;95619.38;;;4.12
67966;BMP280;54749;47.850;9.002;2022-11-20T02:35:47;95612.78;;;4.11
67966;BMP280;54749;47.850;9.002;2022-11-20T02:38:14;95617.94;;;4.08
67966;BMP280;54749;47.850;9.002;2022-11-20T02:40:41;95607.25;;;4.06
67966;BMP280;54749;47.850;9.002;2022-11-20T02:43:08;95619.91;;;4.03
67966;BMP280;54749;47.850;9.002;2022-11-20T02:45:36;95621.22;;;3.95
67966;BMP280;54749;47.850;9.002;2022-11-20T02:48:03;95618.41;;;3.85
67966;BMP280;54749;47.850;9.002;2022-11-20T02:50:30;95610.72;;;3.75
67966;BMP280;54749;47.850;9.002;2022-11-20T02:52:57;95615.34;;;3.67
67966;BMP280;54749;47.850;9.002;2022-11-20T02:55:24;95611.53;;;3.60
67966;BMP280;54749;47.850;9.002;2022-11-20T02:57:50;95602.59;;;3.56
67966;BMP280;54749;47.850;9.002;2022-11-20T03:00:18;95609.53;;;3.51
67966;BMP280;54749;47.850;9.002;2022-11-20T03:02:44;95623.09;;;3.48
67966;BMP280;54749;47.850;9.002;2022-11-20T03:05:11;95605.84;;;3.43
67966;BMP280;54749;47.850;9.002;2022-11-20T03:07:38;95624.44;;;3.38
67966;BMP280;54749;47.850;9.002;2022-11-20T03:10:05;95621.41;;;3.33
67966;BMP280;54749;47.850;9.002;2022-11-20T03:12:32;95617.56;;;3.28
67966;BMP280;54749;47.850;9.002;2022-11-20T03:14:59;95613.59;;;3.24
67966;BMP280;54749;47.850;9.002;2022-11-20T03:17:26;95621.22;;;3.21
67966;BMP280;54749;47.850;9.002;2022-11-20T03:19:53;95614.56;;;3.21
67966;BMP280;54749;47.850;9.002;2022-11-20T03:22:19;95605.31;;;3.23
67966;BMP280;54749;47.850;9.002;2022-11-20T03:24:46;95608.50;;;3.25
67966;BMP280;54749;47.850;9.002;2022-11-20T03:27:13;95614.31;;;3.26
67966;BMP280;54749;47.850;9.002;2022-11-20T03:29:40;95605.13;;;3.26
67966;BMP280;54749;47.850;9.002;2022-11-20T03:32:07;95611.19;;;3.22
67966;BMP280;54749;47.850;9.002;2022-11-20T03:34:34;95603.28;;;3.14
67966;BMP280;54749;47.850;9.002;2022-11-20T03:37:01;95610.38;;;3.07
67966;BMP280;54749;47.850;9.002;2022-11-20T03:39:28;95613.44;;;2.97
67966;BMP280;54749;47.850;9.002;2022-11-20T03:41:55;95601.50;;;2.86
67966;BMP280;54749;47.850;9.002;2022-11-20T03:44:22;95607.88;;;2.77
67966;BMP280;54749;47.850;9.002;2022-11-20T03:46:49;95608.34;;;2.68
67966;BMP280;54749;47.850;9.002;2022-11-20T03:49:16;95610.47;;;2.59
67966;BMP280;54749;47.850;9.002;2022-11-20T03:51:42;95609.97;;;2.52
67966;BMP280;54749;47.850;9.002;2022-11-20T03:54:09;95613.66;;;2.45
67966;BMP280;54749;47.850;9.002;2022-11-20T03:56:37;95608.16;;;2.39
67966;BMP280;54749;47.850;9.002;2022-11-20T03:59:05;95599.22;;;2.35
67966;BMP280;54749;47.850;9.002;2022-11-20T04:01:34;95620.28;;;2.30
67966;BMP280;54749;47.850;9.002;2022-11-20T04:04:02;95607.50;;;2.21
67966;BMP280;54749;47.850;9.002;2022-11-20T04:06:33;95619.38;;;2.16
67966;BMP280;54749;47.850;9.002;2022-11-20T04:09:00;95617.16;;;2.10
67966;BMP280;54749;47.850;9.002;2022-11-20T04:11:28;95625.59;;;2.08
67966;BMP280;54749;47.850;9.002;2022-11-20T04:14:00;95617.38;;;2.06
67966;BMP280;54749;47.850;9.002;2022-11-20T04:16:32;95623.09;;;2.08
67966;BMP280;54749;47.850;9.002;2022-11-20T04:19:02;95627.34;;;2.06
67966;BMP280;54749;47.850;9.002;2022-11-20T04:21:30;95618.25;;;2.05
67966;BMP280;54749;47.850;9.002;2022-11-20T04:23:57;95617.22;;;2.09
67966;BMP280;54749;47.850;9.002;2022-11-20T04:26:25;95613.69;;;2.12
67966;BMP280;54749;47.850;9.002;2022-11-20T04:28:53;95613.41;;;2.18
67966;BMP280;54749;47.850;9.002;2022-11-20T04:31:23;95615.53;;;2.26
67966;BMP280;54749;47.850;9.002;2022-11-20T04:33:50;95606.78;;;2.34
67966;BMP280;54749;47.850;9.002;2022-11-20T04:36:21;95599.75;;;2.42
67966;BMP280;54749;47.850;9.002;2022-11-20T04:38:52;95601.91;;;2.47
67966;BMP280;54749;47.850;9.002;2022-11-20T04:41:25;95590.13;;;2.51
67966;BMP280;54749;47.850;9.002;2022-11-20T04:43:54;95584.16;;;2.53
67966;BMP280;54749;47.850;9.002;2022-11-20T04:46:27;95599.88;;;2.55
67966;BMP280;54749;47.850;9.002;2022-11-20T04:48:54;95611.44;;;2.56
67966;BMP280;54749;47.850;9.002;2022-11-20T04:51:21;95602.44;;;2.54
67966;BMP280;54749;47.850;9.002;2022-11-20T04:53:49;95613.84;;;2.58
67966;BMP280;54749;47.850;9.002;2022-11-20T04:56:16;95607.81;;;2.62
67966;BMP280;54749;47.850;9.002;2022-11-20T04:58:43;95593.66;;;2.62
67966;BMP280;54749;47.850;9.002;2022-11-20T05:01:15;95601.72;;;2.67
67966;BMP280;54749;47.850;9.002;2022-11-20T05:03:43;95619.53;;;2.76
67966;BMP280;54749;47.850;9.002;2022-11-20T05:06:12;95601.03;;;2.80
67966;BMP280;54749;47.850;9.002;2022-11-20T05:08:40;95599.09;;;2.85
67966;BMP280;54749;47.850;9.002;2022-11-20T05:11:12;95601.50;;;2.86
67966;BMP280;54749;47.850;9.002;2022-11-20T05:13:40;95602.25;;;2.88
67966;BMP280;54749;47.850;9.002;2022-11-20T05:16:15;95592.81;;;2.93
67966;BMP280;54749;47.850;9.002;2022-11-20T05:18:43;95589.13;;;3.00
67966;BMP280;54749;47.850;9.002;2022-11-20T05:21:10;95585.25;;;3.10
67966;BMP280;54749;47.850;9.002;2022-11-20T05:23:39;95587.34;;;3.17
67966;BMP280;54749;47.850;9.002;2022-11-20T05:26:08;95586.84;;;3.26
67966;BMP280;54749;47.850;9.002;2022-11-20T05:28:35;95588.97;;;3.33
67966;BMP280;54749;47.850;9.002;2022-11-20T05:31:10;95587.91;;;3.37
67966;BMP280;54749;47.850;9.002;2022-11-20T05:33:40;95610.22;;;3.40
67966;BMP280;54749;47.850;9.002;2022-11-20T05:36:07;95589.25;;;3.42
67966;BMP280;54749;47.850;9.002;2022-11-20T05:38:35;95588.53;;;3.40
67966;BMP280;54749;47.850;9.002;2022-11-20T05:43:33;95607.38;;;3.31
67966;BMP280;54749;47.850;9.002;2022-11-20T05:46:00;95602.72;;;3.25
67966;BMP280;54749;47.850;9.002;2022-11-20T05:48:28;95596.38;;;3.19
67966;BMP280;54749;47.850;9.002;2022-11-20T05:50:57;95590.06;;;3.13
67966;BMP280;54749;47.850;9.002;2022-11-20T05:53:25;95590.25;;;3.10
67966;BMP280;54749;47.850;9.002;2022-11-20T05:56:21;95599.09;;;3.00
67966;BMP280;54749;47.850;9.002;2022-11-20T05:58:48;95596.03;;;2.95
67966;BMP280;54749;47.850;9.002;2022-11-20T06:01:23;95588.47;;;2.97
67966;BMP280;54749;47.850;9.002;2022-11-20T06:03:51;95598.16;;;3.02
67966;BMP280;54749;47.850;9.002;2022-11-20T06:06:19;95584.88;;;3.02
67966;BMP280;54749;47.850;9.002;2022-11-20T06:08:47;95586.63;;;3.00
67966;BMP280;54749;47.850;9.002;2022-11-20T06:11:15;95599.28;;;2.97
67966;BMP280;54749;47.850;9.002;2022-11-20T06:13:43;95582.03;;;2.93
67966;BMP280;54749;47.850;9.002;2022-11-20T06:16:11;95588.97;;;2.88
67966;BMP280;54749;47.850;9.002;2022-11-20T06:18:38;95586.06;;;2.80
67966;BMP280;54749;47.850;9.002;2022-11-20T06:23:33;95608.34;;;2.68
67966;BMP280;54749;47.850;9.002;2022-11-20T06:26:09;95607.59;;;2.66
67966;BMP280;54749;47.850;9.002;2022-11-20T06:28:37;95602.44;;;2.69
67966;BMP280;54749;47.850;9.002;2022-11-20T06:31:05;95603.88;;;2.73
67966;BMP280;54749;47.850;9.002;2022-11-20T06:33:33;95614.53;;;2.76
67966;BMP280;54749;47.850;9.002;2022-11-20T06:36:00;95601.97;;;2.78
67966;BMP280;54749;47.850;9.002;2022-11-20T06:38:36;95616.63;;;2.83
67966;BMP280;54749;47.850;9.002;2022-11-20T06:41:07;95597.06;;;2.91
67966;BMP280;54749;47.850;9.002;2022-11-20T06:43:34;95625.09;;;2.96
67966;BMP280;54749;47.850;9.002;2022-11-20T06:46:00;95617.38;;;3.00
67966;BMP280;54749;47.850;9.002;2022-11-20T06:48:28;95606.28;;;3.06
67966;BMP280;54749;47.850;9.002;2022-11-20T06:50:55;95618.44;;;3.12
67966;BMP280;54749;47.850;9.002;2022-11-20T06:53:23;95620.78;;;3.14
67966;BMP280;54749;47.850;9.002;2022-11-20T06:55:51;95626.34;;;3.19
67966;BMP280;54749;47.850;9.002;2022-11-20T06:58:18;95624.47;;;3.23
67966;BMP280;54749;47.850;9.002;2022-11-20T07:00:45;95617.78;;;3.23
67966;BMP280;54749;47.850;9.002;2022-11-20T07:03:13;95627.78;;;3.23
67966;BMP280;54749;47.850;9.002;2022-11-20T07:05:40;95629.53;;;3.21
67966;BMP280;54749;47.850;9.002;2022-11-20T07:08:08;95633.66;;;3.22
67966;BMP280;54749;47.850;9.002;2022-11-20T07:10:35;95626.16;;;3.22
67966;BMP280;54749;47.850;9.002;2022-11-20T07:13:02;95632.91;;;3.20
67966;BMP280;54749;47.850;9.002;2022-11-20T07:15:29;95637.03;;;3.21
67966;BMP280;54749;47.850;9.002;2022-11-20T07:17:59;95632.53;;;3.28
67966;BMP280;54749;47.850;9.002;2022-11-20T07:20:26;95631.31;;;3.34
67966;BMP280;54749;47.850;9.002;2022-11-20T07:22:57;95638.25;;;3.45
67966;BMP280;54749;47.850;9.002;2022-11-20T07:25:25;95642.56;;;3.56
67966;BMP280;54749;47.850;9.002;2022-11-20T07:27:56;95640.13;;;3.70
67966;BMP280;54749;47.850;9.002;2022-11-20T07:30:23;95642.06;;;3.80
67966;BMP280;54749;47.850;9.002;2022-11-20T07:32:53;95632.38;;;3.89
67966;BMP280;54749;47.850;9.002;2022-11-20T07:35:21;95640.88;;;4.01
67966;BMP280;54749;47.850;9.002;2022-11-20T07:37:48;95628.69;;;4.10
67966;BMP280;54749;47.850;9.002;2022-11-20T07:40:16;95639.06;;;4.18
67966;BMP280;54749;47.850;9.002;2022-11-20T07:42:50;95636.78;;;4.28
67966;BMP280;54749;47.850;9.002;2022-11-20T07:45:18;95626.06;;;4.40
67966;BMP280;54749;47.850;9.002;2022-11-20T07:47:45;95629.91;;;4.45
67966;BMP280;54749;47.850;9.002;2022-11-20T07:50:12;95620.34;;;4.52
67966;BMP280;54749;47.850;9.002;2022-11-20T07:52:40;95634.28;;;4.55
67966;BMP280;54749;47.850;9.002;2022-11-20T07:55:07;95629.63;;;4.63
67966;BMP280;54749;47.850;9.002;2022-11-20T07:57:35;95630.09;;;4.70
67966;BMP280;54749;47.850;9.002;2022-11-20T08:00:03;95611.44;;;4.89
67966;BMP280;54749;47.850;9.002;2022-11-20T08:02:38;95622.84;;;5.06
67966;BMP280;54749;47.850;9.002;2022-11-20T08:05:07;95623.81;;;5.17
67966;BMP280;54749;47.850;9.002;2022-11-20T08:07:38;95625.44;;;5.71
67966;BMP280;54749;47.850;9.002;2022-11-20T08:10:07;95629.94;;;5.78
67966;BMP280;54749;47.850;9.002;2022-11-20T08:12:34;95631.84;;;5.75
67966;BMP280;54749;47.850;9.002;2022-11-20T08:15:20;95656.41;;;5.70
67966;BMP280;54749;47.850;9.002;2022-11-20T08:17:47;95638.84;;;5.57
67966;BMP280;54749;47.850;9.002;2022-11-20T08:20:34;95640.03;;;5.51
67966;BMP280;54749;47.850;9.002;2022-11-20T08:23:03;95631.13;;;5.59
67966;BMP280;54749;47.850;9.002;2022-11-20T08:25:34;95629.72;;;5.69
67966;BMP280;54749;47.850;9.002;2022-11-20T08:28:03;95627.09;;;5.96
67966;BMP280;54749;47.850;9.002;2022-11-20T08:30:45;95633.78;;;6.22
67966;BMP280;54749;47.850;9.002;2022-11-20T08:33:12;95621.25;;;6.34
67966;BMP280;54749;47.850;9.002;2022-11-20T08:35:39;95634.09;;;6.42
67966;BMP280;54749;47.850;9.002;2022-11-20T08:38:08;95633.13;;;6.44
67966;BMP280;54749;47.850;9.002;2022-11-20T08:40:35;95631.50;;;6.43
67966;BMP280;54749;47.850;9.002;2022-11-20T08:43:02;95626.06;;;6.37
67966;BMP280;54749;47.850;9.002;2022-11-20T08:45:29;95637.31;;;6.31
67966;BMP280;54749;47.850;9.002;2022-11-20T08:48:01;95621.25;;;6.46
67966;BMP280;54749;47.850;9.002;2022-11-20T08:50:29;95621.69;;;6.64
67966;BMP280;54749;47.850;9.002;2022-11-20T08:53:05;95614.94;;;6.77
67966;BMP280;54749;47.850;9.002;2022-11-20T08:55:32;95619.84;;;6.91
67966;BMP280;54749;47.850;9.002;2022-11-20T08:58:06;95629.59;;;7.07
67966;BMP280;54749;47.850;9.002;2022-11-20T09:00:33;95615.16;;;7.34
67966;BMP280;54749;47.850;9.002;2022-11-20T09:03:01;95616.91;;;7.21
67966;BMP280;54749;47.850;9.002;2022-11-20T09:05:29;95623.56;;;7.10
67966;BMP280;54749;47.850;9.002;2022-11-20T09:07:56;95622.09;;;6.83
67966;BMP280;54749;47.850;9.002;2022-11-20T09:10:23;95632.81;;;6.73
67966;BMP280;54749;47.850;9.002;2022-11-20T09:12:52;95618.56;;;6.73
67966;BMP280;54749;47.850;9.002;2022-11-20T09:15:19;95623.28;;;6.65
67966;BMP280;54749;47.850;9.002;2022-11-20T09:17:57;95621.97;;;6.72
67966;BMP280;54749;47.850;9.002;2022-11-20T09:20:25;95620.06;;;6.76
67966;BMP280;54749;47.850;9.002;2022-11-20T09:22:52;95629.72;;;6.82
67966;BMP280;54749;47.850;9.002;2022-11-20T09:25:19;95612.84;;;6.83
67966;BMP280;54749;47.850;9.002;2022-11-20T09:27:46;95616.44;;;6.92
67966;BMP280;54749;47.850;9.002;2022-11-20T09:30:14;95617.84;;;6.96
67966;BMP280;54749;47.850;9.002;2022-11-20T09:32:42;95607.00;;;6.95
67966;BMP280;54749;47.850;9.002;2022-11-20T09:35:09;95630.47;;;7.06
67966;BMP280;54749;47.850;9.002;2022-11-20T09:37:37;95612.50;;;7.12
67966;BMP280;54749;47.850;9.002;2022-11-20T09:40:04;95625.28;;;7.09
67966;BMP280;54749;47.850;9.002;2022-11-20T09:48:40;95624.44;;;7.21
67966;BMP280;54749;47.850;9.002;2022-11-20T09:51:13;95627.56;;;7.12
67966;BMP280;54749;47.850;9.002;2022-11-20T09:53:53;95629.47;;;7.21
67966;BMP280;54749;47.850;9.002;2022-11-20T09:56:23;95630.25;;;7.21
67966;BMP280;54749;47.850;9.002;2022-11-20T09:58:52;95637.38;;;7.39
67966;BMP280;54749;47.850;9.002;2022-11-20T10:01:23;95619.28;;;7.69
67966;BMP280;54749;47.850;9.002;2022-11-20T10:03:56;95626.50;;;8.20
67966;BMP280;54749;47.850;9.002;2022-11-20T10:06:30;95634.28;;;8.17
67966;BMP280;54749;47.850;9.002;2022-11-20T10:15:05;95627.00;;;7.89
67966;BMP280;54749;47.850;9.002;2022-11-20T10:20:49;95636.91;;;7.80
67966;BMP280;54749;47.850;9.002;2022-11-20T10:23:35;95629.63;;;7.88
67966;BMP280;54749;47.850;9.002;2022-11-20T10:31:33;95623.59;;;7.90
67966;BMP280;54749;47.850;9.002;2022-11-20T10:34:05;95616.16;;;7.89
67966;BMP280;54749;47.850;9.002;2022-11-20T10:36:55;95622.31;;;7.85
67966;BMP280;54749;47.850;9.002;2022-11-20T10:39:33;95620.22;;;7.79
67966;BMP280;54749;47.850;9.002;2022-11-20T10:42:01;95624.25;;;7.82
67966;BMP280;54749;47.850;9.002;2022-11-20T10:44:29;95635.91;;;7.83
67966;BMP280;54749;47.850;9.002;2022-11-20T10:47:22;95626.00;;;7.92
67966;BMP280;54749;47.850;9.002;2022-11-20T10:49:51;95622.44;;;8.06
67966;BMP280;54749;47.850;9.002;2022-11-20T10:52:49;95626.72;;;8.17
67966;BMP280;54749;47.850;9.002;2022-11-20T11:00:40;95611.03;;;8.13
67966;BMP280;54749;47.850;9.002;2022-11-20T11:03:27;95597.97;;;8.08
67966;BMP280;54749;47.850;9.002;2022-11-20T11:06:02;95602.34;;;8.17
67966;BMP280;54749;47.850;9.002;2022-11-20T11:08:35;95603.94;;;8.18
67966;BMP280;54749;47.850;9.002;2022-11-20T11:11:22;95603.50;;;8.24
67966;BMP280;54749;47.850;9.002;2022-11-20T11:13:50;95606.13;;;8.22
67966;BMP280;54749;47.850;9.002;2022-11-20T11:16:22;95597.91;;;8.21
67966;BMP280;54749;47.850;9.002;2022-11-20T11:18:50;95603.75;;;8.21
67966;BMP280;54749;47.850;9.002;2022-11-20T11:21:24;95605.69;;;8.28
67966;BMP280;54749;47.850;9.002;2022-11-20T11:24:02;95598.84;;;8.30
67966;BMP280;54749;47.850;9.002;2022-11-20T11:29:23;95587.22;;;8.06
67966;BMP280;54749;47.850;9.002;2022-11-20T11:32:03;95587.97;;;7.96
67966;BMP280;54749;47.850;9.002;2022-11-20T11:34:31;95574.03;;;8.03
67966;BMP280;54749;47.850;9.002;2022-11-20T11:36:59;95579.31;;;8.00
67966;BMP280;54749;47.850;9.002;2022-11-20T11:39:28;95584.69;;;8.06
67966;BMP280;54749;47.850;9.002;2022-11-20T11:41:56;95581.25;;;8.07
67966;BMP280;54749;47.850;9.002;2022-11-20T11:44:50;95578.19;;;8.15
67966;BMP280;54749;47.850;9.002;2022-11-20T11:47:35;95575.16;;;8.22
67966;BMP280;54749;47.850;9.002;2022-11-20T11:55:15;95574.47;;;8.31
67966;BMP280;54749;47.850;9.002;2022-11-20T12:00:17;95558.56;;;8.30
67966;BMP280;54749;47.850;9.002;2022-11-20T12:05:26;95570.81;;;8.35
67966;BMP280;54749;47.850;9.002;2022-11-20T12:08:03;95550.88;;;8.32
67966;BMP280;54749;47.850;9.002;2022-11-20T12:10:46;95547.03;;;8.39
67966;BMP280;54749;47.850;9.002;2022-11-20T12:16:01;95532.63;;;8.51
67966;BMP280;54749;47.850;9.002;2022-11-20T12:18:29;95536.75;;;8.63
67966;BMP280;54749;47.850;9.002;2022-11-20T12:29:42;95527.78;;;9.12
67966;BMP280;54749;47.850;9.002;2022-11-20T12:43:43;95536.63;;;9.07
67966;BMP280;54749;47.850;9.002;2022-11-20T12:46:38;95524.56;;;9.10
67966;BMP280;54749;47.850;9.002;2022-11-20T12:52:38;95523.06;;;9.29
67966;BMP280;54749;47.850;9.002;2022-11-20T12:55:21;95530.72;;;9.39
67966;BMP280;54749;47.850;9.002;2022-11-20T13:00:56;95514.94;;;9.26
67966;BMP280;54749;47.850;9.002;2022-11-20T13:03:34;95501.84;;;9.32
67966;BMP280;54749;47.850;9.002;2022-11-20T13:06:17;95503.19;;;9.36
67966;BMP280;54749;47.850;9.002;2022-11-20T13:08:53;95503.19;;;9.46
67966;BMP280;54749;47.850;9.002;2022-11-20T13:15:15;95506.41;;;9.38
67966;BMP280;54749;47.850;9.002;2022-11-20T13:17:33;95497.59;;;9.32
67966;BMP280;54749;47.850;9.002;2022-11-20T13:20:06;95495.78;;;9.24
67966;BMP280;54749;47.850;9.002;2022-11-20T13:22:51;95494.19;;;9.23
67966;BMP280;54749;47.850;9.002;2022-11-20T13:25:26;95491.09;;;9.30
67966;BMP280;54749;47.850;9.002;2022-11-20T13:27:55;95487.41;;;9.34
67966;BMP280;54749;47.850;9.002;2022-11-20T13:30:24;95492.06;;;9.08
67966;BMP280;54749;47.850;9.002;2022-11-20T13:32:56;95481.84;;;9.09
67966;BMP280;54749;47.850;9.002;2022-11-20T13:35:36;95484.63;;;8.95
67966;BMP280;54749;47.850;9.002;2022-11-20T13:40:34;95478.81;;;8.74
67966;BMP280;54749;47.850;9.002;2022-11-20T13:45:30;95485.34;;;8.65
67966;BMP280;54749;47.850;9.002;2022-11-20T13:48:04;95481.13;;;8.55
67966;BMP280;54749;47.850;9.002;2022-11-20T13:50:48;95468.97;;;8.49
67966;BMP280;54749;47.850;9.002;2022-11-20T13:56:21;95482.94;;;8.42
67966;BMP280;54749;47.850;9.002;2022-11-20T13:59:13;95480.19;;;8.45
67966;BMP280;54749;47.850;9.002;2022-11-20T14:01:45;95464.50;;;8.42
67966;BMP280;54749;47.850;9.002;2022-11-20T14:04:19;95472.63;;;8.45
67966;BMP280;54749;47.850;9.002;2022-11-20T14:06:48;95475.84;;;8.47
67966;BMP280;54749;47.850;9.002;2022-11-20T14:11:53;95471.13;;;8.54
67966;BMP280;54749;47.850;9.002;2022-11-20T14:14:23;95468.53;;;8.55
67966;BMP280;54749;47.850;9.002;2022-11-20T14:16:51;95466.69;;;8.57
67966;BMP280;54749;47.850;9.002;2022-11-20T14:19:28;95458.22;;;8.58
67966;BMP280;54749;47.850;9.002;2022-11-20T14:22:27;95448.47;;;8.64
67966;BMP280;54749;47.850;9.002;2022-11-20T14:27:41;95448.69;;;8.61
67966;BMP280;54749;47.850;9.002;2022-11-20T14:30:17;95448.63;;;8.52
67966;BMP280;54749;47.850;9.002;2022-11-20T14:32:46;95452.94;;;8.50
67966;BMP280;54749;47.850;9.002;2022-11-20T14:35:26;95455.91;;;8.44
67966;BMP280;54749;47.850;9.002;2022-11-20T14:37:54;95449.50;;;8.40
67966;BMP280;54749;47.850;9.002;2022-11-20T14:42:49;95448.81;;;8.28
67966;BMP280;54749;47.850;9.002;2022-11-20T14:45:16;95462.44;;;8.15
67966;BMP280;54749;47.850;9.002;2022-11-20T14:47:44;95464.72;;;8.07
67966;BMP280;54749;47.850;9.002;2022-11-20T14:50:17;95466.19;;;7.99
67966;BMP280;54749;47.850;9.002;2022-11-20T14:52:55;95453.34;;;7.91
67966;BMP280;54749;47.850;9.002;2022-11-20T14:55:36;95451.16;;;7.87
67966;BMP280;54749;47.850;9.002;2022-11-20T14:58:27;95456.63;;;7.81
67966;BMP280;54749;47.850;9.002;2022-11-20T15:00:55;95434.66;;;7.72
67966;BMP280;54749;47.850;9.002;2022-11-20T15:03:22;95427.22;;;7.70
67966;BMP280;54749;47.850;9.002;2022-11-20T15:05:57;95443.09;;;7.60
67966;BMP280;54749;47.850;9.002;2022-11-20T15:08:24;95440.19;;;7.54
67966;BMP280;54749;47.850;9.002;2022-11-20T15:10:51;95428.28;;;7.45
67966;BMP280;54749;47.850;9.002;2022-11-20T15:13:32;95430.78;;;7.34
67966;BMP280;54749;47.850;9.002;2022-11-20T15:16:08;95425.69;;;7.24
67966;BMP280;54749;47.850;9.002;2022-11-20T15:18:39;95421.22;;;7.17
67966;BMP280;54749;47.850;9.002;2022-11-20T15:21:16;95422.78;;;7.07
67966;BMP280;54749;47.850;9.002;2022-11-20T15:23:43;95426.72;;;6.99
67966;BMP280;54749;47.850;9.002;2022-11-20T15:26:13;95432.50;;;6.88
67966;BMP280;54749;47.850;9.002;2022-11-20T15:28:46;95420.69;;;6.78
67966;BMP280;54749;47.850;9.002;2022-11-20T15:31:16;95424.53;;;6.71
67966;BMP280;54749;47.850;9.002;2022-11-20T15:33:43;95428.38;;;6.64
67966;BMP280;54749;47.850;9.002;2022-11-20T15:36:10;95418.97;;;6.56
67966;BMP280;54749;47.850;9.002;2022-11-20T15:38:37;95421.88;;;6.50
67966;BMP280;54749;47.850;9.002;2022-11-20T15:41:04;95420.47;;;6.46
67966;BMP280;54749;47.850;9.002;2022-11-20T15:43:31;95416.69;;;6.41
67966;BMP280;54749;47.850;9.002;2022-11-20T15:46:00;95406.94;;;6.36
67966;BMP280;54749;47.850;9.002;2022-11-20T15:48:49;95415.72;;;6.31
67966;BMP280;54749;47.850;9.002;2022-11-20T15:51:29;95422.25;;;6.21
67966;BMP280;54749;47.850;9.002;2022-11-20T15:53:57;95411.94;;;6.13
67966;BMP280;54749;47.850;9.002;2022-11-20T15:56:25;95406.50;;;6.07
67966;BMP280;54749;47.850;9.002;2022-11-20T15:58:52;95398.69;;;5.99
67966;BMP280;54749;47.850;9.002;2022-11-20T16:01:21;95399.81;;;5.95
67966;BMP280;54749;47.850;9.002;2022-11-20T16:03:49;95405.94;;;5.92
67966;BMP280;54749;47.850;9.002;2022-11-20T16:06:16;95393.47;;;5.90
67966;BMP280;54749;47.850;9.002;2022-11-20T16:08:42;95403.13;;;5.84
67966;BMP280;54749;47.850;9.002;2022-11-20T16:11:14;95406.53;;;5.83
67966;BMP280;54749;47.850;9.002;2022-11-20T16:13:41;95419.97;;;5.82